Flight Track Log - Related Links

Times and Time Zones

All times are in EDT time to prevent confusion due to time zone crossing. See the SCX396 flight status page for this flight to view local times or setup timezone preferences in your user account.

Time Position Orientation Groundspeed Altitude Reporting Facility
EDT Latitude Longitude Course Direction KTS MPH feet Rate Location/Type
Sat 08:50:57 PM 37.6800 -122.3040 43° Northeast 253 291 4,100  Level FlightAware ADS-B
Sat 08:51:22 PM 37.7000 -122.2770 47° Northeast 277 319 5,300 3,491 Climbing FlightAware ADS-B
Sat 08:51:52 PM 37.7270 -122.2420 46° Northeast 280 322 7,300 3,800 Climbing FlightAware ADS-B
Sat 08:52:22 PM 37.7540 -122.2060 47° Northeast 295 339 9,100 3,600 Climbing FlightAware ADS-B
Sat 08:52:32 PM 37.7610 -122.1900 61° Northeast 301 346 9,700 2,836 Climbing FlightAware ADS-B
Sat 08:53:17 PM 37.7840 -122.1080 70° East 344 396 11,700 2,894 Climbing FlightAware ADS-B
Sat 08:53:57 PM 37.8050 -122.0320 71° East 364 419 13,800 3,225 Climbing FlightAware ADS-B
Sat 08:54:37 PM 37.8280 -121.9480 71° East 375 432 16,000 3,035 Climbing FlightAware ADS-B
Sat 08:55:22 PM 37.8530 -121.8560 71° East 388 447 18,100 2,894 Climbing FlightAware ADS-B
Sat 08:56:02 PM 37.8860 -121.7740 63° Northeast 399 459 20,100 2,824 Climbing FlightAware ADS-B
Sat 08:56:47 PM 37.9240 -121.6790 63° Northeast 413 475 22,100 2,753 Climbing FlightAware ADS-B
Sat 08:57:27 PM 37.9590 -121.5890 64° Northeast 423 487 24,000 2,682 Climbing FlightAware ADS-B
Sat 08:58:12 PM 37.9990 -121.4880 63° Northeast 433 498 25,900 2,400 Climbing FlightAware ADS-B
Sat 08:58:52 PM 38.0350 -121.3960 64° Northeast 443 510 27,400 2,047 Climbing FlightAware ADS-B
Sat 08:59:37 PM 38.0760 -121.2910 64° Northeast 454 522 28,800 1,906 Climbing FlightAware ADS-B
Sat 09:00:17 PM 38.1130 -121.1960 64° Northeast 458 527 30,100 1,906 Climbing FlightAware ADS-B
Sat 09:01:02 PM 38.1570 -121.0860 63° Northeast 463 533 31,500 2,047 Climbing FlightAware ADS-B
Sat 09:01:42 PM 38.1910 -120.9960 64° Northeast 456 525 33,000 2,025 Climbing FlightAware ADS-B
Sat 09:02:22 PM 38.2310 -120.8930 64° Northeast 460 529 34,200 1,553 Climbing FlightAware ADS-B
Sat 09:03:07 PM 38.2730 -120.7850 64° Northeast 465 535 35,200 1,412 Climbing FlightAware ADS-B
Sat 09:03:47 PM 38.3090 -120.6900 64° Northeast 466 536 36,200 1,650 Climbing FlightAware ADS-B
Sat 09:04:27 PM 38.3470 -120.5900 64° Northeast 458 527 37,400 1,575 Climbing FlightAware ADS-B
Sat 09:05:07 PM 38.3810 -120.5000 64° Northeast 453 521 38,300 1,129 Climbing FlightAware ADS-B
Sat 09:05:52 PM 38.4250 -120.3850 64° Northeast 456 525 39,000 467 Climbing FlightAware ADS-B
Sat 09:06:37 PM 38.4680 -120.2740 64° Northeast 458 527 39,000  Level FlightAware ADS-B
Sat 09:07:17 PM 38.5050 -120.1770 64° Northeast 460 529 39,000  Level FlightAware ADS-B
Sat 09:07:57 PM 38.5420 -120.0770 65° Northeast 462 532 39,000  Level FlightAware ADS-B
Sat 09:08:42 PM 38.5830 -119.9700 64° Northeast 462 532 39,000  Level FlightAware ADS-B
Sat 09:09:22 PM 38.6180 -119.8770 64° Northeast 462 532 39,000  Level FlightAware ADS-B
Sat 09:10:02 PM 38.6550 -119.7770 65° Northeast 463 533 39,000  Level FlightAware ADS-B
Sat 09:10:47 PM 38.6930 -119.6760 64° Northeast 463 533 39,000  Level FlightAware ADS-B
Sat 09:11:27 PM 38.7340 -119.5630 65° Northeast 462 532 39,000  Level FlightAware ADS-B
Sat 09:12:12 PM 38.7760 -119.4520 64° Northeast 460 529 39,000  Level FlightAware ADS-B
Sat 09:12:52 PM 38.8130 -119.3520 65° Northeast 459 528 39,000  Level FlightAware ADS-B
Sat 09:13:37 PM 38.8530 -119.2420 65° Northeast 456 525 39,000  Level FlightAware ADS-B
Sat 09:14:32 PM 38.8990 -119.1180 64° Northeast 454 522 39,000  Level FlightAware ADS-B
Sat 09:15:12 PM 38.9310 -119.0350 64° Northeast 454 522 39,000  Level FlightAware ADS-B
Sat 09:15:52 PM 38.9620 -118.9520 64° Northeast 454 522 39,000  Level FlightAware ADS-B
Sat 09:16:32 PM 38.9930 -118.8700 64° Northeast 454 522 39,000  Level FlightAware ADS-B
Sat 09:17:22 PM 39.0320 -118.7670 64° Northeast 454 522 39,000  Level FlightAware ADS-B
Sat 09:18:02 PM 39.0640 -118.6840 64° Northeast 454 522 39,000  Level FlightAware ADS-B
Sat 09:18:42 PM 39.0950 -118.6010 64° Northeast 454 522 39,000  Level FlightAware ADS-B
Sat 09:19:22 PM 39.1260 -118.5190 64° Northeast 454 522 39,000  Level FlightAware ADS-B
Sat 09:20:02 PM 39.1580 -118.4360 64° Northeast 454 522 39,000  Level FlightAware ADS-B
Sat 09:20:52 PM 39.1970 -118.3320 64° Northeast 454 522 39,000  Level FlightAware ADS-B
Sat 09:21:32 PM 39.2280 -118.2490 64° Northeast 454 522 39,000  Level FlightAware ADS-B
Sat 09:22:12 PM 39.2590 -118.1670 64° Northeast 454 522 39,000  Level FlightAware ADS-B
Sat 09:22:52 PM 39.2910 -118.0840 63° Northeast 454 522 39,000  Level FlightAware ADS-B
Sat 09:23:32 PM 39.3220 -118.0010 64° Northeast 454 522 39,000  Level FlightAware ADS-B
Sat 09:24:01 PM 39.3917 -117.7208 64° Northeast 455 524 39,000  Level Salt Lake Center
Sat 09:25:02 PM 39.4436 -117.5725 66° East 455 524 39,000  Level Salt Lake Center
Sat 09:26:08 PM 39.5067 -117.3931 65° Northeast 456 525 39,000  Level Oakland Center
Sat 09:27:09 PM 39.5569 -117.2444 66° East 458 527 39,000  Level Oakland Center
Sat 09:28:05 PM 39.6050 -117.1011 66° East 453 521 39,000  Level Salt Lake Center
Sat 09:29:06 PM 39.6531 -116.9581 66° East 453 521 39,000  Level Salt Lake Center
Sat 09:30:07 PM 39.7097 -116.7908 66° East 454 522 39,000  Level Salt Lake Center
Sat 09:31:08 PM 39.7578 -116.6475 66° East 454 522 39,000  Level Salt Lake Center
Sat 09:32:09 PM 39.8061 -116.5028 66° East 458 527 39,000  Level Salt Lake Center
Sat 09:33:10 PM 39.8619 -116.3358 66° East 453 521 39,000  Level Salt Lake Center
Sat 09:34:11 PM 39.9075 -116.1950 67° East 446 513 39,000  Level Salt Lake Center
Sat 09:35:12 PM 39.9625 -116.0292 67° East 446 513 39,000  Level Salt Lake Center
Sat 09:36:13 PM 40.0092 -115.8861 67° East 448 516 39,000  Level Salt Lake Center
Sat 09:37:14 PM 40.0558 -115.7450 67° East 446 513 39,000  Level Salt Lake Center
Sat 09:38:15 PM 40.1094 -115.5794 67° East 445 512 39,000  Level Salt Lake Center
Sat 09:39:16 PM 40.1564 -115.4353 67° East 450 518 39,000  Level Salt Lake Center
Sat 09:40:17 PM 40.2019 -115.2906 68° East 452 520 39,000  Level Salt Lake Center
Sat 09:41:18 PM 40.2550 -115.1219 68° East 450 518 39,000  Level Salt Lake Center
Sat 09:42:19 PM 40.3019 -114.9758 67° East 452 520 39,000  Level Salt Lake Center
Sat 09:43:20 PM 40.3483 -114.8294 67° East 455 524 39,000  Level Salt Lake Center
Sat 09:44:21 PM 40.4025 -114.6556 68° East 458 527 39,000  Level Salt Lake Center
Sat 09:45:22 PM 40.4492 -114.5014 68° East 457 526 39,000  Level Salt Lake Center
Sat 09:46:23 PM 40.4975 -114.3469 68° East 457 526 39,000  Level Salt Lake Center
Sat 09:47:24 PM 40.5458 -114.1931 68° East 457 526 39,000  Level Salt Lake Center
Sat 09:48:25 PM 40.5919 -114.0392 68° East 454 522 39,000  Level Salt Lake Center
Sat 09:49:26 PM 40.6378 -113.8853 69° East 454 522 39,000  Level Salt Lake Center
Sat 09:50:27 PM 40.6842 -113.7319 68° East 452 520 39,000  Level Salt Lake Center
Sat 09:51:28 PM 40.7297 -113.5797 68° East 449 517 39,000  Level Salt Lake Center
Sat 09:52:29 PM 40.7764 -113.4258 68° East 452 520 39,000  Level Salt Lake Center
Sat 09:57:37 PM 41.0150 -112.6010 68° East 453 521 39,000  Level FlightAware ADS-B
Sat 09:58:22 PM 41.0450 -112.4940 70° East 453 521 39,000  Level FlightAware ADS-B
Sat 09:59:07 PM 41.0820 -112.3650 69° East 451 519 39,000  Level FlightAware ADS-B
Sat 09:59:47 PM 41.1110 -112.2630 69° East 450 518 39,000  Level FlightAware ADS-B
Sat 10:00:32 PM 41.1450 -112.1440 69° East 451 519 39,000  Level FlightAware ADS-B
Sat 10:01:12 PM 41.1740 -112.0400 70° East 453 521 39,000  Level FlightAware ADS-B
Sat 10:01:52 PM 41.2020 -111.9390 70° East 455 524 39,000  Level FlightAware ADS-B
Sat 10:02:37 PM 41.2350 -111.8200 70° East 457 526 39,000  Level FlightAware ADS-B
Sat 10:03:17 PM 41.2650 -111.7130 70° East 459 528 39,000  Level FlightAware ADS-B
Sat 10:04:02 PM 41.2970 -111.5990 69° East 461 531 39,000  Level FlightAware ADS-B
Sat 10:04:37 PM 41.3230 -111.5080 69° East 462 532 39,000  Level FlightAware ADS-B
Sat 10:05:17 PM 41.3490 -111.4170 69° East 462 532 39,000  Level FlightAware ADS-B
Sat 10:06:07 PM 41.3810 -111.3040 69° East 462 532 39,000  Level FlightAware ADS-B
Sat 10:06:47 PM 41.4080 -111.2140 68° East 462 532 39,000  Level FlightAware ADS-B
Sat 10:07:27 PM 41.4340 -111.1230 69° East 462 532 39,000  Level FlightAware ADS-B
Sat 10:08:07 PM 41.4600 -111.0330 69° East 462 532 39,000  Level FlightAware ADS-B
Sat 10:08:47 PM 41.4860 -110.9420 69° East 462 532 39,000  Level FlightAware ADS-B
Sat 10:09:17 PM 41.5050 -110.8740 70° East 462 532 39,000  Level FlightAware ADS-B
Sat 10:09:57 PM 41.5310 -110.7840 69° East 462 532 39,000  Level FlightAware ADS-B
Sat 10:10:47 PM 41.5640 -110.6700 69° East 462 532 39,000  Level FlightAware ADS-B
Sat 10:11:27 PM 41.5900 -110.5800 69° East 462 532 39,000  Level FlightAware ADS-B
Sat 10:12:07 PM 41.6160 -110.4890 69° East 462 532 39,000  Level FlightAware ADS-B
Sat 10:12:47 PM 41.6420 -110.3980 69° East 462 532 39,000  Level FlightAware ADS-B
Sat 10:13:37 PM 41.6740 -110.2850 69° East 462 532 39,000  Level FlightAware ADS-B
Sat 10:14:07 PM 41.6940 -110.2160 69° East 462 532 39,000  Level FlightAware ADS-B
Sat 10:14:52 PM 41.7622 -109.8733 69° East 453 521 39,000  Level Salt Lake Center
Sat 10:15:53 PM 41.8014 -109.7197 71° East 454 522 39,000  Level Salt Lake Center
Sat 10:16:54 PM 41.8414 -109.5647 71° East 457 526 39,000  Level Salt Lake Center
Sat 10:17:55 PM 41.8869 -109.3853 71° East 454 522 39,000  Level Salt Lake Center
Sat 10:18:55 PM 41.9264 -109.2314 71° East 453 521 39,000  Level Salt Lake Center
Sat 10:19:56 PM 41.9647 -109.0778 71° East 452 520 39,000  Level Salt Lake Center
Sat 10:20:58 PM 42.0094 -108.8964 72° East 454 522 39,000  Level Salt Lake Center
Sat 10:21:59 PM 42.0478 -108.7453 71° East 447 514 39,000  Level Salt Lake Center
Sat 10:23:00 PM 42.0861 -108.5919 71° East 450 518 39,000  Level Salt Lake Center
Sat 10:24:00 PM 42.1292 -108.4128 72° East 450 518 39,000  Level Salt Lake Center
Sat 10:25:01 PM 42.1678 -108.2586 71° East 453 521 39,000  Level Salt Lake Center
Sat 10:26:02 PM 42.2050 -108.1039 72° East 454 522 39,000  Level Salt Lake Center
Sat 10:27:03 PM 42.2481 -107.9233 72° East 453 521 39,000  Level Salt Lake Center
Sat 10:28:04 PM 42.2844 -107.7683 72° East 453 521 39,000  Level Salt Lake Center
Sat 10:29:05 PM 42.3219 -107.6139 72° East 452 520 39,000  Level Salt Lake Center
Sat 10:29:28 PM 42.3386 -107.5350 74° East 452 520 39,000  Level Denver Center
Sat 10:30:29 PM 42.3731 -107.3792 73° East 451 519 39,000  Level Denver Center
Sat 10:31:30 PM 42.4089 -107.2236 73° East 453 521 39,000  Level Denver Center
Sat 10:32:31 PM 42.4506 -107.0403 73° East 457 526 39,000  Level Denver Center
Sat 10:33:32 PM 42.4861 -106.8842 73° East 454 522 39,000  Level Denver Center
Sat 10:34:32 PM 42.5256 -106.7147 72° East 454 522 39,000  Level Denver Center
Sat 10:35:33 PM 42.5603 -106.5572 73° East 454 522 39,000  Level Denver Center
Sat 10:36:34 PM 42.6006 -106.3747 73° East 452 520 39,000  Level Denver Center
Sat 10:37:35 PM 42.6356 -106.2189 73° East 452 520 39,000  Level Denver Center
Sat 10:38:35 PM 42.6700 -106.0611 73° East 456 525 39,000  Level Denver Center
Sat 10:44:21 PM 42.8769 -105.0960 73° East 456 525 39,000  Level FlightAware ADS-B
Sat 10:44:53 PM 42.8952 -105.0060 74° East 456 525 39,000  Level FlightAware ADS-B
Sat 10:45:24 PM 42.9127 -104.9220 74° East 455 524 39,000  Level FlightAware ADS-B
Sat 10:45:57 PM 42.9316 -104.8320 74° East 454 522 39,000  Level FlightAware ADS-B
Sat 10:46:35 PM 42.9534 -104.7270 74° East 453 521 39,000  Level FlightAware ADS-B
Sat 10:47:13 PM 42.9745 -104.6230 74° East 450 518 39,000  Level FlightAware ADS-B
Sat 10:47:49 PM 42.9945 -104.5240 75° East 449 517 39,000  Level FlightAware ADS-B
Sat 10:48:24 PM 43.0137 -104.4300 74° East 448 516 39,000  Level FlightAware ADS-B
Sat 10:48:57 PM 43.0324 -104.3380 74° East 447 514 39,000  Level FlightAware ADS-B
Sat 10:49:32 PM 43.0515 -104.2450 74° East 447 514 39,000  Level FlightAware ADS-B
Sat 10:50:08 PM 43.0707 -104.1470 75° East 446 513 39,000  Level FlightAware ADS-B
Sat 10:50:52 PM 43.0940 -104.0280 75° East 445 512 39,000  Level FlightAware ADS-B
Sat 10:51:28 PM 43.1138 -103.9290 75° East 445 512 39,000  Level FlightAware ADS-B
Sat 10:51:58 PM 43.1299 -103.8470 75° East 445 512 39,000  Level FlightAware ADS-B
Sat 10:52:29 PM 43.1461 -103.7640 75° East 447 514 39,000  Level FlightAware ADS-B
Sat 10:52:59 PM 43.1622 -103.6810 75° East 447 514 39,000  Level FlightAware ADS-B
Sat 10:53:34 PM 43.1807 -103.5870 75° East 447 514 39,000  Level FlightAware ADS-B
Sat 10:54:24 PM 43.2071 -103.4490 75° East 447 514 39,000  Level FlightAware ADS-B
Sat 10:55:12 PM 43.2320 -103.3190 75° East 447 514 39,000  Level FlightAware ADS-B
Sat 10:56:07 PM 43.2602 -103.1700 75° East 447 514 39,000  Level FlightAware ADS-B
Sat 10:56:23 PM 43.2653 -103.1219 75° East 449 517 39,000  Level Minneapolis Center
Sat 10:57:01 PM 43.2828 -103.0342 75° East 444 511 39,000  Level Denver Center
Sat 10:58:02 PM 43.3136 -102.8781 75° East 443 510 39,000  Level Denver Center
Sat 10:59:03 PM 43.3456 -102.6958 76° East 440 506 39,000  Level Denver Center
Sat 11:00:03 PM 43.3747 -102.5389 76° East 442 509 39,000  Level Denver Center
Sat 11:01:04 PM 43.4033 -102.3819 76° East 441 507 39,000  Level Denver Center
Sat 11:02:05 PM 43.4367 -102.1994 76° East 441 507 39,000  Level Denver Center
Sat 11:03:06 PM 43.4639 -102.0422 77° East 444 511 39,000  Level Denver Center
Sat 11:04:06 PM 43.4931 -101.8783 76° East 443 510 39,000  Level Denver Center
Sat 11:05:07 PM 43.5219 -101.7131 76° East 445 512 39,000  Level Denver Center
Sat 11:06:08 PM 43.5514 -101.5503 76° East 440 506 39,000  Level Denver Center
Sat 11:07:08 PM 43.5783 -101.3850 77° East 442 509 39,000  Level Denver Center
Sat 11:08:09 PM 43.6064 -101.2211 77° East 440 506 39,000  Level Denver Center
Sat 11:09:09 PM 43.6344 -101.0578 77° East 439 505 39,000  Level Denver Center
Sat 11:09:31 PM 43.6456 -100.9947 76° East 438 504 39,000  Level Minneapolis Center
Sat 11:10:32 PM 43.6733 -100.8319 77° East 437 503 39,000  Level Minneapolis Center
Sat 11:11:32 PM 43.6994 -100.6697 77° East 436 502 39,000  Level Minneapolis Center
Sat 11:12:11 PM 43.7208 -100.5414 77° East 427 491 39,000  Level Denver Center
Sat 11:13:12 PM 43.7469 -100.3783 77° East 432 497 39,000  Level Denver Center
Sat 11:13:34 PM 43.7525 -100.3469 76° East 433 498 39,000  Level Minneapolis Center
Sat 11:14:34 PM 43.7789 -100.1831 77° East 436 502 39,000  Level Minneapolis Center
Sat 11:15:35 PM 43.8047 -100.0211 77° East 435 501 39,000  Level Minneapolis Center
Sat 11:16:35 PM 43.8347 -99.8275 78° East 432 497 39,000  Level Minneapolis Center
Sat 11:17:36 PM 43.8606 -99.6619 78° East 437 503 39,000  Level Minneapolis Center
Sat 11:18:36 PM 43.8850 -99.4969 78° East 438 504 39,000  Level Minneapolis Center
Sat 11:19:37 PM 43.9114 -99.3322 77° East 439 505 39,000  Level Minneapolis Center
Sat 11:20:38 PM 43.9358 -99.1678 78° East 438 504 39,000  Level Minneapolis Center
Sat 11:26:32 PM 44.0930 -98.2090 78° East 431 496 39,000  Level FlightAware ADS-B
Sat 11:27:12 PM 44.1130 -98.1010 76° East 432 497 39,000  Level FlightAware ADS-B
Sat 11:27:52 PM 44.1320 -97.9920 76° East 432 497 39,000  Level FlightAware ADS-B
Sat 11:28:37 PM 44.1540 -97.8730 76° East 433 498 39,000  Level FlightAware ADS-B
Sat 11:29:17 PM 44.1730 -97.7620 77° East 434 499 39,000  Level FlightAware ADS-B
Sat 11:30:02 PM 44.1940 -97.6430 76° East 434 499 39,000  Level FlightAware ADS-B
Sat 11:30:42 PM 44.2130 -97.5340 76° East 435 501 39,000  Level FlightAware ADS-B
Sat 11:31:22 PM 44.2310 -97.4270 77° East 435 501 39,000  Level FlightAware ADS-B
Sat 11:32:07 PM 44.2530 -97.3010 76° East 437 503 39,000  Level FlightAware ADS-B
Sat 11:32:47 PM 44.2710 -97.1920 77° East 436 502 39,000  Level FlightAware ADS-B
Sat 11:33:32 PM 44.2920 -97.0710 76° East 436 502 39,000  Level FlightAware ADS-B
Sat 11:34:12 PM 44.3110 -96.9600 77° East 434 499 39,000  Level FlightAware ADS-B
Sat 11:34:57 PM 44.3310 -96.8360 77° East 433 498 39,000  Level FlightAware ADS-B
Sat 11:35:37 PM 44.3500 -96.7270 76° East 433 498 39,000  Level FlightAware ADS-B
Sat 11:36:17 PM 44.3670 -96.6200 77° East 431 496 39,000  Level FlightAware ADS-B
Sat 11:37:02 PM 44.3870 -96.4980 77° East 430 495 39,000  Level FlightAware ADS-B
Sat 11:37:42 PM 44.4050 -96.3900 77° East 428 493 39,000  Level FlightAware ADS-B
Sat 11:38:22 PM 44.4220 -96.2850 77° East 429 494 39,000  Level FlightAware ADS-B
Sat 11:39:07 PM 44.4430 -96.1580 77° East 429 494 39,000  Level FlightAware ADS-B
Sat 11:39:47 PM 44.4590 -96.0550 78° East 430 495 39,000  Level FlightAware ADS-B
Sat 11:40:32 PM 44.4790 -95.9320 77° East 430 495 39,000  Level FlightAware ADS-B
Sat 11:41:12 PM 44.4960 -95.8220 78° East 430 495 39,000 -825 Level FlightAware ADS-B
Sat 11:41:52 PM 44.5130 -95.7160 77° East 421 484 37,900 -2,047 Descending FlightAware ADS-B
Sat 11:42:37 PM 44.5320 -95.5940 78° East 416 479 36,100 -2,471 Descending FlightAware ADS-B
Sat 11:43:17 PM 44.5490 -95.4890 77° East 417 480 34,400 -2,329 Descending FlightAware ADS-B
Sat 11:44:02 PM 44.5670 -95.3730 78° East 409 471 32,800 -2,118 Descending FlightAware ADS-B
Sat 11:44:42 PM 44.5830 -95.2720 77° East 402 463 31,400 -2,025 Descending FlightAware ADS-B
Sat 11:45:22 PM 44.5980 -95.1710 78° East 394 453 30,100 -1,976 Descending FlightAware ADS-B
Sat 11:46:07 PM 44.6160 -95.0560 78° East 385 443 28,600 -1,976 Descending FlightAware ADS-B
Sat 11:46:47 PM 44.6300 -94.9600 78° East 378 435 27,300 -1,950 Descending FlightAware ADS-B
Sat 11:47:27 PM 44.6440 -94.8690 78° East 370 426 26,000 -1,906 Descending FlightAware ADS-B
Sat 11:48:12 PM 44.6600 -94.7620 78° East 361 415 24,600 -1,835 Descending FlightAware ADS-B
Sat 11:48:52 PM 44.6740 -94.6710 78° East 354 407 23,400 -1,765 Descending FlightAware ADS-B
Sat 11:49:37 PM 44.6890 -94.5730 78° East 348 400 22,100 -1,765 Descending FlightAware ADS-B
Sat 11:50:17 PM 44.7020 -94.4830 78° East 343 395 20,900 -1,725 Descending FlightAware ADS-B
Sat 11:50:57 PM 44.7140 -94.3990 79° East 338 389 19,800 -1,694 Descending FlightAware ADS-B
Sat 11:51:42 PM 44.7180 -94.2980 87° East 333 383 18,500 -1,835 Descending FlightAware ADS-B
Sat 11:52:22 PM 44.7210 -94.2130 87° East 332 382 17,200 -1,976 Descending FlightAware ADS-B
Sat 11:53:07 PM 44.7250 -94.1170 87° East 331 381 15,700 -1,906 Descending FlightAware ADS-B
Sat 11:53:47 PM 44.7280 -94.0320 87° East 327 376 14,500 -1,800 Descending FlightAware ADS-B
Sat 11:54:27 PM 44.7310 -93.9470 87° East 321 369 13,300 -1,765 Descending FlightAware ADS-B
Sat 11:55:12 PM 44.7340 -93.8530 87° East 314 361 12,000 -1,765 Descending FlightAware ADS-B
Sat 11:55:52 PM 44.7370 -93.7720 87° East 306 352 10,800 -1,482 Descending FlightAware ADS-B
Sat 11:56:37 PM 44.7400 -93.6860 87° East 292 336 9,900 -857 Descending FlightAware ADS-B
Sat 11:57:02 PM 44.7410 -93.6390 88° East 270 311 9,800 -982 Descending FlightAware ADS-B
Sat 11:57:32 PM 44.7430 -93.5860 87° East 272 313 9,000 -1,636 Descending FlightAware ADS-B
Sat 11:57:57 PM 44.7450 -93.5430 86° East 274 315 8,300 -1,527 Descending FlightAware ADS-B
Sat 11:58:27 PM 44.7460 -93.4900 88° East 273 314 7,600 -1,418 Descending FlightAware ADS-B
Sat 11:58:52 PM 44.7470 -93.4450 88° East 268 308 7,000 -1,418 Descending FlightAware ADS-B
Sat 11:59:22 PM 44.7490 -93.3920 87° East 263 303 6,300 -1,500 Descending FlightAware ADS-B
Sat 11:59:52 PM 44.7510 -93.3460 86° East 265 305 5,500 -1,418 Descending FlightAware ADS-B
Sun 12:00:17 AM 44.7520 -93.3010 88° East 260 299 5,000 -982 Descending FlightAware ADS-B
Sun 12:00:47 AM 44.7530 -93.2540 88° East 246 283 4,600 -800 Descending FlightAware ADS-B
Sun 12:01:02 AM 44.7540 -93.2270 87° East 236 272 4,400 -750 Descending FlightAware ADS-B
Sun 12:01:27 AM 44.7560 -93.1900 86° East 227 261 4,100 -655 Descending FlightAware ADS-B
Sun 12:01:57 AM 44.7560 -93.1460 90° East 227 261 3,800 -400 Descending FlightAware ADS-B
Sun 12:02:27 AM 44.7570 -93.1030 88° East 228 262 3,700 -655 Descending FlightAware ADS-B
Sun 12:02:52 AM 44.7580 -93.0640 88° East 231 266 3,200 -1,200 Descending FlightAware ADS-B
Sun 12:03:07 AM 44.7640 -93.0430 68° East 225 259 2,900 -800 Descending FlightAware ADS-B
Sun 12:03:22 AM 44.7770 -93.0310 33° Northeast 211 243 2,800 -109 Descending FlightAware ADS-B
Sun 12:04:02 AM 44.8030 -93.0550 327° Northwest 178 205 2,800  Level FlightAware ADS-B
Sun 12:04:32 AM 44.8140 -93.0820 300° West 170 196 2,800 -327 Level FlightAware ADS-B
Sun 12:04:57 AM 44.8250 -93.1060 303° West 163 188 2,500 -750 Descending FlightAware ADS-B
Sun 12:05:12 AM 44.8300 -93.1190 298° West 154 177 2,300 -800 Descending FlightAware ADS-B
Sun 12:05:42 AM 44.8410 -93.1430 303° West 135 155 1,900 -800 Descending FlightAware ADS-B
Sun 12:05:57 AM 44.8460 -93.1550 300° West 129 148 1,700 -750 Descending FlightAware ADS-B
Sun 12:06:22 AM 44.8540 -93.1720 304° West 128 147 1,400 -655 Descending FlightAware ADS-B
Sun 12:06:52 AM 44.8630 -93.1930 301° West 130 150 1,100 -764 Descending FlightAware ADS-B
Sun 12:07:17 AM 44.8710 -93.2110 302° West 126 145 700 -960 Descending FlightAware ADS-B

Login

Don't have an account? Register now (free) for customized features, flight alerts, and more!